Time;durP1;ratioP1;P1;durP2;ratioP2;P2;SDS_P1;SDS_P2;PMS_P1;PMS_P2;Temp;Humidity;BMP_temperature;BMP_pressure;BME280_temperature;BME280_humidity;BME280_pressure;Samples;Min_cycle;Max_cycle;Signal;HPM_P1;HPM_P2
2022/09/23 00:00:19;;;;;;;38.87;20.73;;;8.30;99.90;;;;;;9842205;30;20409;-83
2022/09/23 00:05:20;;;;;;;36.60;19.17;;;8.40;99.90;;;;;;9860426;30;20047;-84
2022/09/23 00:10:21;;;;;;;35.17;18.90;;;8.40;99.90;;;;;;9861046;30;20055;-83
2022/09/23 00:15:24;;;;;;;36.33;19.10;;;8.50;99.90;;;;;;9863828;30;20038;-83
2022/09/23 00:20:25;;;;;;;29.00;15.93;;;8.50;99.90;;;;;;9859314;30;20736;-83
2022/09/23 00:25:28;;;;;;;34.40;18.33;;;8.50;99.90;;;;;;9849428;30;20516;-84
2022/09/23 00:30:29;;;;;;;35.80;19.27;;;8.60;99.90;;;;;;9863423;30;20040;-84
2022/09/23 00:35:30;;;;;;;36.03;20.17;;;8.60;99.90;;;;;;9865327;30;20109;-85
2022/09/23 00:40:31;;;;;;;41.13;21.30;;;8.60;99.90;;;;;;9848517;30;20117;-83
2022/09/23 00:45:31;;;;;;;37.23;20.97;;;8.50;99.90;;;;;;9858740;30;20040;-83
2022/09/23 00:50:35;;;;;;;38.17;19.70;;;8.40;99.90;;;;;;9861032;30;20048;-82
2022/09/23 00:55:51;;;;;;;41.63;21.33;;;8.40;99.90;;;;;;9864372;30;20034;-85
2022/09/23 01:00:53;;;;;;;41.20;18.43;;;8.40;99.90;;;;;;9861299;30;20056;-83
2022/09/23 01:05:55;;;;;;;40.93;21.40;;;8.40;99.90;;;;;;9863883;30;20032;-85
2022/09/23 01:11:17;;;;;;;41.90;22.43;;;8.50;99.90;;;;;;9847455;30;20048;-84
2022/09/23 01:16:43;;;;;;;49.70;24.23;;;8.40;99.90;;;;;;9860999;30;20476;-84
2022/09/23 01:22:16;;;;;;;40.10;21.47;;;8.40;99.90;;;;;;9859980;30;20114;-83
2022/09/23 01:27:58;;;;;;;44.20;23.90;;;8.40;99.90;;;;;;9858490;30;20043;-84
2022/09/23 01:33:47;;;;;;;43.97;23.57;;;8.50;99.90;;;;;;9862343;30;20077;-86
2022/09/23 01:39:15;;;;;;;40.80;23.63;;;8.50;99.90;;;;;;9755213;30;20389;-85
2022/09/23 01:44:38;;;;;;;40.53;20.70;;;8.50;99.90;;;;;;9860211;30;20105;-84
2022/09/23 01:49:55;;;;;;;45.67;23.33;;;8.60;99.90;;;;;;9860115;30;20131;-83
2022/09/23 01:55:12;;;;;;;42.43;23.80;;;8.70;99.90;;;;;;9862453;30;20576;-83
2022/09/23 02:00:16;;;;;;;48.77;24.90;;;8.70;99.90;;;;;;9858023;30;20063;-83
2022/09/23 02:05:31;;;;;;;68.10;34.17;;;8.80;99.90;;;;;;9862383;30;20069;-84
2022/09/23 02:10:44;;;;;;;48.10;24.88;;;8.80;99.90;;;;;;9861501;30;20455;-83
2022/09/23 02:15:54;;;;;;;43.40;22.37;;;8.80;99.90;;;;;;9859534;30;20035;-84
2022/09/23 02:21:01;;;;;;;42.07;22.93;;;8.70;99.90;;;;;;9861132;30;20076;-85
2022/09/23 02:26:28;;;;;;;42.50;23.43;;;8.50;99.90;;;;;;9845183;30;20032;-83
2022/09/23 02:31:48;;;;;;;46.27;24.07;;;8.40;99.90;;;;;;9850452;30;20532;-85
2022/09/23 02:37:08;;;;;;;42.83;22.47;;;8.10;99.90;;;;;;9860123;30;20114;-84
2022/09/23 02:42:15;;;;;;;47.63;22.70;;;7.80;99.90;;;;;;9859789;30;20020;-83
2022/09/23 02:47:22;;;;;;;48.43;23.80;;;7.70;99.90;;;;;;9855453;30;20077;-83
2022/09/23 02:52:23;;;;;;;48.30;23.30;;;7.50;99.90;;;;;;9860619;30;20056;-85
2022/09/23 02:57:24;;;;;;;41.07;20.33;;;7.40;99.90;;;;;;9860434;30;20040;-84
2022/09/23 03:02:55;;;;;;;49.23;22.23;;;7.20;99.90;;;;;;9840979;30;20058;-84
2022/09/23 03:08:28;;;;;;;48.37;24.00;;;7.00;99.90;;;;;;9858882;30;20057;-83
2022/09/23 03:13:41;;;;;;;47.23;22.57;;;6.90;99.90;;;;;;9834014;30;20074;-82
2022/09/23 03:18:50;;;;;;;52.67;22.83;;;6.80;99.90;;;;;;9856655;30;20134;-83
2022/09/23 03:23:53;;;;;;;51.23;23.40;;;6.70;99.90;;;;;;9857043;30;20671;-82
2022/09/23 03:28:54;;;;;;;59.77;25.60;;;6.60;99.90;;;;;;9856930;30;20067;-83
2022/09/23 03:33:58;;;;;;;46.87;23.47;;;6.50;99.90;;;;;;9859468;30;20564;-84
2022/09/23 03:39:17;;;;;;;60.30;26.37;;;6.40;99.90;;;;;;9860961;30;20401;-85
2022/09/23 03:44:19;;;;;;;54.23;25.20;;;6.30;99.90;;;;;;9853326;30;20504;-85
2022/09/23 03:49:28;;;;;;;40.10;21.23;;;6.30;99.90;;;;;;9865861;30;20032;-81
2022/09/23 03:54:29;;;;;;;57.47;24.93;;;6.20;99.90;;;;;;9847518;30;20036;-85
2022/09/23 03:59:30;;;;;;;58.77;24.20;;;6.10;99.90;;;;;;9863874;30;20497;-84
2022/09/23 04:04:33;;;;;;;45.83;21.47;;;6.10;99.90;;;;;;9863416;30;20055;-83
2022/09/23 04:09:33;;;;;;;55.57;24.83;;;6.10;99.90;;;;;;9866057;30;20436;-83
2022/09/23 04:14:34;;;;;;;68.17;25.77;;;6.10;99.90;;;;;;9861322;30;20048;-83
2022/09/23 04:19:35;;;;;;;55.10;24.57;;;6.10;99.90;;;;;;9863483;30;20054;-84
2022/09/23 04:24:35;;;;;;;52.93;23.40;;;6.10;99.90;;;;;;9865381;30;20576;-81
2022/09/23 04:29:36;;;;;;;51.63;23.90;;;6.00;99.90;;;;;;9862933;30;20040;-83
2022/09/23 04:34:36;;;;;;;38.93;19.87;;;6.00;99.90;;;;;;9863409;30;20051;-84
2022/09/23 04:39:37;;;;;;;38.80;19.67;;;6.00;99.90;;;;;;9865603;30;20036;-84
2022/09/23 04:44:38;;;;;;;58.27;24.60;;;5.90;99.90;;;;;;9863503;30;20451;-83
2022/09/23 04:49:39;;;;;;;49.90;22.93;;;5.90;99.90;;;;;;9848746;30;20034;-83
2022/09/23 04:54:40;;;;;;;39.73;20.03;;;5.90;99.90;;;;;;9862949;30;20044;-83
2022/09/23 04:59:44;;;;;;;39.43;20.93;;;5.90;99.90;;;;;;9864005;30;20047;-83
2022/09/23 05:04:44;;;;;;;38.13;20.23;;;5.90;99.90;;;;;;9858030;30;20060;-83
2022/09/23 05:09:45;;;;;;;44.57;22.53;;;5.80;99.90;;;;;;9864505;30;20040;-82
2022/09/23 05:14:45;;;;;;;53.33;22.47;;;5.90;99.90;;;;;;9864259;30;20197;-81
2022/09/23 05:19:46;;;;;;;53.83;25.10;;;5.90;99.90;;;;;;9863615;30;20548;-80
2022/09/23 05:24:46;;;;;;;48.87;25.50;;;5.90;99.90;;;;;;9864258;30;20047;-80
2022/09/23 05:29:48;;;;;;;51.23;24.27;;;5.90;99.90;;;;;;9861296;30;20096;-82
2022/09/23 05:34:48;;;;;;;47.63;22.50;;;6.00;99.90;;;;;;9856561;30;20481;-83
2022/09/23 05:39:49;;;;;;;60.53;29.37;;;6.00;99.90;;;;;;9863762;30;20048;-82
2022/09/23 05:44:49;;;;;;;63.10;32.07;;;6.10;99.90;;;;;;9857776;30;20048;-79
2022/09/23 05:49:50;;;;;;;68.20;34.33;;;6.20;99.90;;;;;;9863523;30;20508;-82
2022/09/23 05:54:51;;;;;;;84.83;41.50;;;6.30;99.90;;;;;;9844202;30;20050;-80
2022/09/23 05:59:52;;;;;;;94.63;48.73;;;6.40;99.90;;;;;;9861341;30;20028;-83
2022/09/23 06:04:52;;;;;;;94.73;48.77;;;6.50;99.90;;;;;;9846443;30;20043;-80
2022/09/23 06:09:53;;;;;;;89.77;48.00;;;6.60;99.90;;;;;;9861461;30;20490;-80
2022/09/23 06:14:53;;;;;;;105.87;51.23;;;6.80;99.90;;;;;;9862378;30;20052;-80
2022/09/23 06:19:54;;;;;;;74.10;38.80;;;6.90;99.90;;;;;;9858393;30;20036;-80
2022/09/23 06:24:55;;;;;;;91.10;41.13;;;7.20;99.90;;;;;;9847114;30;20024;-81
2022/09/23 06:29:56;;;;;;;86.93;41.43;;;7.40;99.90;;;;;;9842906;30;20391;-81
2022/09/23 06:34:57;;;;;;;81.20;37.33;;;7.60;99.90;;;;;;9855185;30;20043;-80
2022/09/23 06:39:57;;;;;;;87.37;41.17;;;7.70;99.90;;;;;;9855138;30;20020;-80
2022/09/23 06:44:58;;;;;;;79.67;36.93;;;7.90;99.90;;;;;;9851331;30;20032;-80
2022/09/23 06:50:01;;;;;;;83.17;39.90;;;8.10;99.90;;;;;;9858392;30;20028;-80
2022/09/23 06:55:03;;;;;;;89.23;39.83;;;8.30;99.90;;;;;;9857048;30;20126;-79
2022/09/23 07:00:04;;;;;;;58.33;31.67;;;8.50;99.90;;;;;;9859798;30;20032;-82
2022/09/23 07:05:04;;;;;;;70.23;34.60;;;8.80;99.90;;;;;;9855599;30;20085;-80
2022/09/23 07:10:06;;;;;;;53.93;29.20;;;9.00;99.90;;;;;;9858827;30;20439;-81
2022/09/23 07:15:08;;;;;;;53.33;26.80;;;9.20;99.90;;;;;;9859496;30;20099;-81
2022/09/23 07:20:10;;;;;;;42.72;24.05;;;9.50;99.90;;;;;;9860626;30;20501;-80
2022/09/23 07:25:11;;;;;;;44.33;25.85;;;9.80;99.90;;;;;;9850577;30;20408;-83
2022/09/23 07:30:13;;;;;;;43.05;24.00;;;9.90;99.90;;;;;;9846726;30;20031;-81
2022/09/23 07:35:14;;;;;;;43.55;23.77;;;10.20;99.90;;;;;;9853729;30;20539;-82
2022/09/23 07:40:14;;;;;;;49.85;26.70;;;10.30;99.90;;;;;;9857771;30;20047;-82
2022/09/23 07:45:15;;;;;;;49.00;26.10;;;10.50;99.90;;;;;;9840533;30;20323;-81
2022/09/23 07:50:17;;;;;;;50.58;26.08;;;10.60;99.90;;;;;;9855729;30;20028;-82
2022/09/23 07:55:40;;;;;;;45.42;24.67;;;10.90;99.90;;;;;;9852925;30;20505;-81
2022/09/23 08:00:42;;;;;;;46.72;24.63;;;10.80;99.90;;;;;;9844814;30;20056;-83
2022/09/23 08:05:42;;;;;;;53.88;24.13;;;11.00;99.90;;;;;;9857527;30;20036;-81
2022/09/23 08:10:44;;;;;;;48.20;23.75;;;11.00;99.90;;;;;;9849687;30;20032;-82
2022/09/23 08:15:47;;;;;;;45.42;23.75;;;11.00;99.90;;;;;;9854868;30;20394;-80
2022/09/23 08:20:48;;;;;;;38.78;22.73;;;10.90;99.90;;;;;;9858997;30;20031;-81
2022/09/23 08:25:58;;;;;;;30.15;18.33;;;11.30;99.90;;;;;;9842642;30;20042;-81
2022/09/23 08:30:59;;;;;;;24.95;14.82;;;11.60;99.90;;;;;;9859081;30;20027;-82
2022/09/23 08:36:01;;;;;;;27.73;16.83;;;11.60;99.90;;;;;;9848682;30;20044;-81
2022/09/23 08:41:27;;;;;;;27.15;14.73;;;11.70;99.90;;;;;;9863269;30;20614;-81
2022/09/23 08:46:40;;;;;;;27.00;13.82;;;11.90;99.90;;;;;;9862210;30;20040;-81
2022/09/23 08:51:45;;;;;;;21.83;12.57;;;12.00;99.90;;;;;;9852789;30;20055;-81
2022/09/23 08:56:50;;;;;;;23.65;12.48;;;12.40;99.90;;;;;;9863297;30;20042;-81
2022/09/23 09:01:59;;;;;;;19.30;12.05;;;12.60;99.90;;;;;;9855966;30;20059;-81
2022/09/23 09:07:05;;;;;;;17.73;11.93;;;12.70;99.90;;;;;;9854718;30;20051;-81
2022/09/23 09:12:19;;;;;;;18.10;11.43;;;12.50;99.90;;;;;;9858776;30;20052;-80
2022/09/23 09:17:32;;;;;;;14.40;8.98;;;12.50;99.90;;;;;;9863779;30;20028;-81
2022/09/23 09:22:42;;;;;;;14.00;7.78;;;13.00;99.90;;;;;;9861938;30;20028;-81
2022/09/23 09:27:44;;;;;;;14.13;8.18;;;13.60;99.90;;;;;;9846180;30;20046;-81
2022/09/23 09:32:53;;;;;;;6.50;4.13;;;13.50;99.90;;;;;;9853422;30;20040;-81
2022/09/23 09:37:54;;;;;;;6.63;3.53;;;13.50;99.90;;;;;;9850593;30;20401;-82
2022/09/23 09:42:55;;;;;;;4.40;3.08;;;12.90;99.90;;;;;;9853646;30;20039;-82
2022/09/23 09:48:16;;;;;;;7.38;3.30;;;12.70;99.90;;;;;;9857031;30;20031;-83
2022/09/23 09:53:25;;;;;;;5.22;3.17;;;12.90;99.90;;;;;;9856430;30;20056;-83
2022/09/23 09:58:31;;;;;;;4.93;3.28;;;13.50;99.90;;;;;;9858251;30;20060;-81
2022/09/23 10:03:38;;;;;;;3.25;1.90;;;14.20;99.90;;;;;;9849925;30;20143;-80
2022/09/23 10:08:38;;;;;;;2.75;1.70;;;14.50;99.90;;;;;;9846950;30;20051;-80
2022/09/23 10:13:39;;;;;;;2.63;2.10;;;14.30;99.90;;;;;;9854821;30;20047;-80
2022/09/23 10:18:46;;;;;;;4.45;2.70;;;14.30;99.90;;;;;;9842488;30;20070;-81
2022/09/23 10:23:54;;;;;;;2.28;1.80;;;14.60;99.90;;;;;;9841655;30;20410;-83
2022/09/23 10:28:57;;;;;;;2.28;1.60;;;14.80;99.90;;;;;;9853670;30;20031;-80
2022/09/23 10:34:00;;;;;;;2.03;1.30;;;15.20;99.90;;;;;;9856855;30;20044;-81
2022/09/23 10:50:18;;;;;;;3.67;2.57;;;15.20;99.90;;;;;;9847275;30;20069;-81
2022/09/23 10:55:30;;;;;;;4.22;2.42;;;15.10;99.90;;;;;;9851127;30;20044;-80
2022/09/23 11:00:39;;;;;;;4.13;3.03;;;14.80;99.90;;;;;;9854204;30;20063;-80
2022/09/23 11:06:13;;;;;;;4.80;2.90;;;14.60;99.90;;;;;;9860238;30;20358;-81
2022/09/23 11:11:45;;;;;;;6.80;3.25;;;14.40;99.90;;;;;;9849751;30;20035;-81
2022/09/23 11:17:26;;;;;;;5.90;3.45;;;14.50;99.90;;;;;;9827121;30;20051;-81
2022/09/23 11:22:42;;;;;;;3.45;2.50;;;15.30;99.90;;;;;;9815252;30;20083;-82
2022/09/23 11:27:59;;;;;;;3.53;2.50;;;15.60;99.90;;;;;;9851580;30;20457;-81
2022/09/23 11:33:12;;;;;;;8.05;2.95;;;16.00;99.90;;;;;;9857385;30;20043;-80
2022/09/23 11:38:24;;;;;;;10.27;7.75;;;16.20;99.90;;;;;;9854432;30;20558;-81
2022/09/23 11:43:35;;;;;;;7.07;5.15;;;16.70;99.90;;;;;;9833782;30;20039;-82
2022/09/23 11:49:05;;;;;;;8.85;5.95;;;17.10;99.90;;;;;;9860380;30;20516;-80
2022/09/23 11:54:23;;;;;;;4.10;3.08;;;17.40;99.90;;;;;;9818730;30;20055;-81
2022/09/23 11:59:50;;;;;;;3.13;2.55;;;17.50;99.90;;;;;;9854784;30;20024;-82
2022/09/23 12:05:03;;;;;;;2.80;2.30;;;17.60;99.90;;;;;;9857945;30;20101;-81
2022/09/23 12:10:07;;;;;;;2.97;2.03;;;17.50;99.90;;;;;;9857742;30;20048;-81
2022/09/23 12:15:44;;;;;;;3.40;2.00;;;17.20;99.90;;;;;;9866430;30;20058;-80
2022/09/23 12:21:32;;;;;;;3.20;2.33;;;16.40;99.90;;;;;;9866398;30;20032;-81
2022/09/23 12:26:34;;;;;;;5.53;2.55;;;16.50;99.90;;;;;;9845761;30;20040;-81
2022/09/23 12:31:37;;;;;;;3.13;2.08;;;16.80;99.90;;;;;;9849269;30;20066;-81
2022/09/23 12:36:38;;;;;;;2.35;1.70;;;16.50;99.90;;;;;;9857413;30;20096;-81
2022/09/23 12:41:41;;;;;;;3.42;2.38;;;16.10;99.90;;;;;;9856645;30;20024;-83
2022/09/23 12:46:43;;;;;;;4.07;3.17;;;15.90;99.90;;;;;;9850962;30;20456;-82
2022/09/23 12:52:10;;;;;;;2.92;1.80;;;16.40;99.90;;;;;;9862701;30;20492;-82
2022/09/23 12:57:25;;;;;;;3.20;2.25;;;17.00;99.90;;;;;;9859021;30;20055;-82
2022/09/23 13:02:31;;;;;;;3.20;2.20;;;17.10;99.90;;;;;;9861669;30;20060;-82
2022/09/23 13:07:33;;;;;;;4.10;2.70;;;17.30;99.90;;;;;;9841676;30;20047;-82
2022/09/23 13:12:38;;;;;;;2.25;1.80;;;17.40;99.90;;;;;;9861810;30;20481;-83
2022/09/23 13:17:39;;;;;;;3.67;1.60;;;17.40;99.90;;;;;;9861433;30;20040;-82
2022/09/23 13:22:48;;;;;;;1.50;1.40;;;17.30;99.90;;;;;;9859671;30;20043;-83
2022/09/23 13:27:56;;;;;;;2.83;2.25;;;16.80;99.90;;;;;;9860469;30;20085;-83
2022/09/23 13:33:09;;;;;;;6.57;3.63;;;17.10;99.90;;;;;;9842413;30;20048;-83
2022/09/23 13:38:25;;;;;;;2.35;1.60;;;17.40;99.90;;;;;;9854778;30;20165;-83
2022/09/23 13:43:32;;;;;;;3.05;2.00;;;17.70;99.90;;;;;;9862569;30;20055;-82
2022/09/23 13:48:33;;;;;;;3.20;1.83;;;17.80;99.90;;;;;;9849579;30;20040;-82
2022/09/23 13:53:37;;;;;;;2.83;1.67;;;17.80;99.90;;;;;;9858633;30;20413;-82
2022/09/23 13:58:42;;;;;;;5.13;2.92;;;18.00;99.90;;;;;;9861436;30;20046;-83
2022/09/23 14:03:43;;;;;;;3.27;2.17;;;18.00;99.90;;;;;;9863331;30;20400;-83
2022/09/23 14:08:47;;;;;;;6.63;3.50;;;17.90;99.90;;;;;;9845853;30;20209;-82
2022/09/23 14:13:53;;;;;;;3.88;2.40;;;17.90;99.90;;;;;;9857976;30;20048;-83
2022/09/23 14:18:58;;;;;;;5.00;2.63;;;17.80;99.90;;;;;;9859691;30;20031;-83
2022/09/23 14:24:28;;;;;;;5.45;3.58;;;17.80;99.90;;;;;;9856811;30;20131;-83
2022/09/23 14:29:39;;;;;;;4.85;2.40;;;17.40;99.90;;;;;;9856067;30;20059;-83
2022/09/23 14:35:07;;;;;;;2.72;1.90;;;16.90;99.90;;;;;;9859283;30;20035;-85
2022/09/23 14:40:21;;;;;;;3.08;2.20;;;16.40;99.90;;;;;;9856670;30;20516;-84
2022/09/23 14:45:26;;;;;;;3.10;1.90;;;15.90;99.90;;;;;;9842340;30;20552;-83
2022/09/23 14:50:42;;;;;;;3.37;1.83;;;15.80;99.90;;;;;;9857923;30;20856;-83
2022/09/23 14:55:43;;;;;;;3.33;2.15;;;15.80;99.90;;;;;;9859861;30;20068;-83
2022/09/23 15:01:04;;;;;;;3.08;2.05;;;15.80;99.90;;;;;;9839977;30;20101;-83
2022/09/23 15:06:08;;;;;;;12.10;7.38;;;16.00;99.90;;;;;;9842962;30;20370;-86
2022/09/23 15:11:08;;;;;;;6.38;3.90;;;16.00;99.90;;;;;;9852090;30;20440;-84
2022/09/23 15:16:13;;;;;;;11.80;6.68;;;15.90;99.90;;;;;;9856097;30;20036;-85
2022/09/23 15:21:17;;;;;;;27.23;16.67;;;15.70;99.90;;;;;;9863070;30;20028;-85
2022/09/23 15:26:22;;;;;;;16.27;9.25;;;15.50;99.90;;;;;;9836498;30;20042;-83
2022/09/23 15:31:25;;;;;;;19.48;10.43;;;15.30;99.90;;;;;;9856815;30;20039;-84
2022/09/23 15:36:27;;;;;;;11.75;6.03;;;15.10;99.90;;;;;;9852378;30;20694;-84
2022/09/23 15:41:28;;;;;;;41.83;19.90;;;15.00;99.90;;;;;;9859198;30;20044;-83
2022/09/23 15:46:32;;;;;;;12.73;7.50;;;14.90;99.90;;;;;;9862892;30;20418;-84
2022/09/23 15:51:34;;;;;;;12.13;7.00;;;14.80;99.90;;;;;;9863993;30;20102;-82
2022/09/23 15:56:34;;;;;;;10.20;5.22;;;14.70;99.90;;;;;;9865327;30;20055;-83
2022/09/23 16:01:35;;;;;;;6.15;4.25;;;14.50;99.90;;;;;;9858790;30;20065;-83
2022/09/23 16:06:36;;;;;;;14.02;7.40;;;14.30;99.90;;;;;;9862778;30;20040;-83
2022/09/23 16:11:37;;;;;;;11.60;5.43;;;13.90;99.90;;;;;;9862178;30;20052;-83
2022/09/23 16:16:38;;;;;;;10.38;4.20;;;13.40;99.90;;;;;;9861246;30;20071;-82
2022/09/23 16:21:39;;;;;;;8.40;4.05;;;12.90;99.90;;;;;;9866914;30;20107;-83
2022/09/23 16:26:42;;;;;;;24.35;8.45;;;12.50;99.90;;;;;;9865884;30;20059;-83
2022/09/23 16:31:42;;;;;;;19.23;7.80;;;12.00;99.90;;;;;;9866103;30;20107;-83
2022/09/23 16:36:43;;;;;;;8.15;4.72;;;11.70;99.90;;;;;;9861845;30;20036;-82
2022/09/23 16:41:43;;;;;;;6.63;4.57;;;11.40;99.90;;;;;;9857944;30;20032;-83
2022/09/23 16:46:44;;;;;;;8.45;4.70;;;11.10;99.90;;;;;;9848272;30;20390;-83
2022/09/23 16:51:44;;;;;;;13.68;7.13;;;10.80;99.90;;;;;;9842460;30;20059;-82
2022/09/23 16:56:45;;;;;;;13.00;6.93;;;10.60;99.90;;;;;;9857311;30;20044;-84
2022/09/23 17:07:05;;;;;;;14.13;6.45;;;10.30;99.90;;;;;;9857272;30;20040;-85
2022/09/23 17:12:26;;;;;;;9.07;5.17;;;10.10;99.90;;;;;;9842958;30;20047;-86
2022/09/23 17:17:27;;;;;;;9.60;5.38;;;10.00;99.90;;;;;;9855561;30;20105;-86
2022/09/23 17:22:29;;;;;;;16.88;9.43;;;9.90;99.90;;;;;;9860422;30;20577;-85
2022/09/23 17:27:30;;;;;;;19.03;11.07;;;9.80;99.90;;;;;;9836719;30;20032;-85
2022/09/23 17:32:31;;;;;;;34.95;13.27;;;9.70;99.90;;;;;;9846066;30;20052;-85
2022/09/23 17:37:32;;;;;;;21.30;11.17;;;9.50;99.90;;;;;;9839005;30;20036;-84
2022/09/23 17:42:33;;;;;;;13.50;7.40;;;9.40;99.90;;;;;;9852142;30;20110;-85
2022/09/23 17:47:34;;;;;;;9.67;6.17;;;9.30;99.90;;;;;;9860139;30;20040;-84
2022/09/23 17:52:34;;;;;;;8.00;5.40;;;9.20;99.90;;;;;;9859688;30;20143;-84
2022/09/23 17:57:35;;;;;;;12.80;6.17;;;9.20;99.90;;;;;;9842299;30;20039;-85
2022/09/23 18:02:35;;;;;;;12.03;5.73;;;9.20;99.90;;;;;;9851473;30;20083;-85
2022/09/23 18:07:36;;;;;;;10.27;5.77;;;9.10;99.90;;;;;;9849484;30;20320;-86
2022/09/23 18:12:37;;;;;;;8.73;4.83;;;9.00;99.90;;;;;;9836585;30;20588;-85
2022/09/23 18:17:37;;;;;;;10.00;4.80;;;9.00;99.90;;;;;;9852840;30;20036;-86
2022/09/23 18:22:38;;;;;;;9.83;4.93;;;8.90;99.90;;;;;;9855961;30;20044;-86
2022/09/23 18:27:39;;;;;;;10.10;5.23;;;8.90;99.90;;;;;;9831756;30;20040;-86
2022/09/23 18:32:39;;;;;;;8.70;4.40;;;8.90;99.90;;;;;;9852089;30;20101;-84
2022/09/23 18:37:40;;;;;;;7.83;4.37;;;8.90;99.90;;;;;;9856443;30;20040;-84
2022/09/23 18:42:41;;;;;;;11.67;5.43;;;8.90;99.90;;;;;;9853480;30;20055;-86
2022/09/23 18:53:02;;;;;;;11.40;5.83;;;8.60;99.90;;;;;;9855837;30;20090;-85
2022/09/23 18:58:06;;;;;;;9.50;5.67;;;8.40;99.90;;;;;;9850057;30;20046;-85
2022/09/23 19:03:06;;;;;;;9.97;5.17;;;8.30;99.90;;;;;;9836197;30;20048;-84
2022/09/23 19:08:07;;;;;;;10.00;5.50;;;8.20;99.90;;;;;;9837230;30;20070;-81
2022/09/23 19:13:08;;;;;;;16.10;8.80;;;8.10;99.90;;;;;;9851983;30;20196;-84
2022/09/23 19:18:09;;;;;;;21.67;10.63;;;8.10;99.90;;;;;;9847406;30;20036;-83
2022/09/23 19:23:10;;;;;;;23.03;12.80;;;7.90;99.90;;;;;;9859328;30;20389;-84
2022/09/23 19:28:10;;;;;;;25.53;14.50;;;7.80;99.90;;;;;;9849054;30;20044;-85
2022/09/23 19:33:11;;;;;;;28.63;16.13;;;7.80;99.90;;;;;;9858628;30;20047;-82
2022/09/23 19:38:12;;;;;;;28.97;16.43;;;7.70;99.90;;;;;;9854271;30;20044;-84
2022/09/23 19:43:14;;;;;;;34.87;18.47;;;7.70;99.90;;;;;;9855070;30;20035;-85
2022/09/23 19:48:15;;;;;;;43.00;23.87;;;7.70;99.90;;;;;;9854737;30;20489;-86
2022/09/23 19:53:16;;;;;;;45.83;25.97;;;7.80;99.90;;;;;;9833473;30;20066;-85
2022/09/23 19:58:16;;;;;;;45.43;25.33;;;7.80;99.90;;;;;;9835992;30;20046;-85
2022/09/23 20:03:19;;;;;;;38.83;23.53;;;7.80;99.90;;;;;;9844645;30;20082;-87
2022/09/23 20:08:20;;;;;;;51.90;28.87;;;7.80;99.90;;;;;;9837120;30;20112;-85
2022/09/23 20:13:21;;;;;;;44.87;23.83;;;7.80;99.90;;;;;;9840421;30;20036;-83
2022/09/23 20:18:21;;;;;;;43.10;24.57;;;7.60;99.90;;;;;;9852613;30;20437;-84
2022/09/23 20:23:22;;;;;;;41.17;23.73;;;7.60;99.90;;;;;;9838949;30;20019;-83
2022/09/23 20:28:24;;;;;;;38.33;22.67;;;7.60;99.90;;;;;;9851495;30;20049;-83
2022/09/23 20:33:24;;;;;;;39.03;21.93;;;7.70;99.90;;;;;;9854325;30;20521;-83
2022/09/23 20:38:25;;;;;;;36.40;20.87;;;7.70;99.90;;;;;;9843569;30;20079;-83
2022/09/23 20:43:26;;;;;;;42.50;24.07;;;7.60;99.90;;;;;;9862443;30;20033;-84
2022/09/23 20:48:28;;;;;;;46.57;25.30;;;7.60;99.90;;;;;;9861726;30;20054;-83
2022/09/23 20:53:31;;;;;;;54.47;29.43;;;7.50;99.90;;;;;;9857555;30;20393;-84
2022/09/23 20:58:36;;;;;;;48.03;26.67;;;7.40;99.90;;;;;;9859940;30;20036;-85
2022/09/23 21:03:41;;;;;;;39.53;21.30;;;7.20;99.90;;;;;;9859568;30;20079;-85
2022/09/23 21:08:43;;;;;;;37.42;20.33;;;7.20;99.90;;;;;;9858916;30;20050;-84
2022/09/23 21:13:45;;;;;;;49.40;28.70;;;7.20;99.90;;;;;;9844540;30;20604;-85
2022/09/23 21:18:47;;;;;;;55.97;31.10;;;7.20;99.90;;;;;;9859126;30;20036;-84
2022/09/23 21:23:48;;;;;;;46.77;27.03;;;7.30;99.90;;;;;;9862664;30;20038;-84
2022/09/23 21:28:51;;;;;;;54.80;30.77;;;7.20;99.90;;;;;;9844648;30;20036;-84
2022/09/23 21:33:55;;;;;;;65.37;33.80;;;7.20;99.90;;;;;;9840770;30;20055;-84
2022/09/23 21:38:56;;;;;;;61.87;33.63;;;7.00;99.90;;;;;;9859280;30;20063;-85
2022/09/23 21:43:58;;;;;;;74.53;39.80;;;6.90;99.90;;;;;;9839605;30;20064;-86
2022/09/23 21:49:02;;;;;;;64.77;34.97;;;6.90;99.90;;;;;;9842369;30;20122;-83
2022/09/23 21:54:04;;;;;;;59.47;33.97;;;6.90;99.90;;;;;;9845570;30;20047;-84
2022/09/23 21:59:06;;;;;;;58.00;32.73;;;6.90;99.90;;;;;;9860871;30;20024;-84
2022/09/23 22:04:17;;;;;;;54.17;28.73;;;6.80;99.90;;;;;;9857723;30;20064;-84
2022/09/23 22:09:20;;;;;;;55.00;30.23;;;6.60;99.90;;;;;;9841403;30;20051;-84
2022/09/23 22:14:24;;;;;;;67.23;36.87;;;6.70;99.90;;;;;;9858827;30;20106;-84
2022/09/23 22:19:27;;;;;;;59.13;32.20;;;6.60;99.90;;;;;;9841225;30;20507;-84
2022/09/23 22:24:28;;;;;;;80.87;42.73;;;6.70;99.90;;;;;;9859842;30;20081;-84
2022/09/23 22:34:48;;;;;;;62.97;36.00;;;6.90;99.90;;;;;;9858762;30;20063;-84
2022/09/23 22:39:48;;;;;;;59.43;35.13;;;7.10;99.90;;;;;;9843595;30;20035;-84
2022/09/23 22:44:50;;;;;;;67.10;35.70;;;7.40;99.90;;;;;;9850808;30;20043;-85
2022/09/23 22:49:53;;;;;;;62.53;36.17;;;7.50;99.90;;;;;;9859050;30;20031;-85
2022/09/23 22:54:53;;;;;;;76.47;41.33;;;7.60;99.90;;;;;;9851285;30;20047;-85
2022/09/23 22:59:54;;;;;;;69.53;36.63;;;7.70;99.90;;;;;;9853801;30;20513;-85
2022/09/23 23:04:54;;;;;;;66.20;36.37;;;7.70;99.90;;;;;;9821930;30;20056;-84
2022/09/23 23:09:55;;;;;;;74.13;41.37;;;7.80;99.90;;;;;;9823235;30;20032;-84
2022/09/23 23:14:56;;;;;;;67.63;37.40;;;7.80;99.90;;;;;;9806709;30;20052;-85
2022/09/23 23:19:56;;;;;;;66.63;36.10;;;7.80;99.90;;;;;;9805645;30;20048;-84
2022/09/23 23:24:57;;;;;;;58.43;33.17;;;7.80;99.90;;;;;;9808450;30;20044;-84
2022/09/23 23:29:57;;;;;;;56.47;32.63;;;7.80;99.90;;;;;;9823391;30;20411;-85
2022/09/23 23:34:58;;;;;;;69.37;39.60;;;7.80;99.90;;;;;;9823814;30;20059;-85
2022/09/23 23:39:58;;;;;;;67.37;37.10;;;7.90;99.90;;;;;;9822792;30;20502;-84
2022/09/23 23:44:59;;;;;;;66.83;37.33;;;7.90;99.90;;;;;;9822531;30;20043;-85
2022/09/23 23:50:03;;;;;;;67.27;38.13;;;7.90;99.90;;;;;;9806128;30;20119;-84
2022/09/23 23:55:04;;;;;;;59.17;33.93;;;8.00;99.90;;;;;;9817142;30;20061;-84
